sensor_id;sensor_type;location;lat;lon;timestamp;P1;durP1;ratioP1;P2;durP2;ratioP2
12296;SDS011;6211;49.124;9.152;2023-04-06T00:01:06;7.55;;;2.97;;
12296;SDS011;6211;49.124;9.152;2023-04-06T00:03:33;4.13;;;3.25;;
12296;SDS011;6211;49.124;9.152;2023-04-06T00:06:00;3.10;;;2.83;;
12296;SDS011;6211;49.124;9.152;2023-04-06T00:08:27;5.65;;;3.15;;
12296;SDS011;6211;49.124;9.152;2023-04-06T00:10:54;4.18;;;3.38;;
12296;SDS011;6211;49.124;9.152;2023-04-06T00:13:21;3.97;;;2.85;;
12296;SDS011;6211;49.124;9.152;2023-04-06T00:15:50;4.40;;;3.05;;
12296;SDS011;6211;49.124;9.152;2023-04-06T00:18:17;1.85;;;1.73;;
12296;SDS011;6211;49.124;9.152;2023-04-06T00:20:44;2.72;;;2.53;;
12296;SDS011;6211;49.124;9.152;2023-04-06T00:23:11;5.88;;;2.92;;
12296;SDS011;6211;49.124;9.152;2023-04-06T00:25:38;5.05;;;4.10;;
12296;SDS011;6211;49.124;9.152;2023-04-06T00:28:05;4.18;;;2.50;;
12296;SDS011;6211;49.124;9.152;2023-04-06T00:30:32;2.20;;;1.95;;
12296;SDS011;6211;49.124;9.152;2023-04-06T00:33:01;3.85;;;3.20;;
12296;SDS011;6211;49.124;9.152;2023-04-06T00:35:28;1.92;;;1.83;;
12296;SDS011;6211;49.124;9.152;2023-04-06T00:37:55;3.55;;;2.95;;
12296;SDS011;6211;49.124;9.152;2023-04-06T00:40:22;6.10;;;3.45;;
12296;SDS011;6211;49.124;9.152;2023-04-06T00:42:50;2.60;;;2.20;;
12296;SDS011;6211;49.124;9.152;2023-04-06T00:45:17;4.40;;;3.10;;
12296;SDS011;6211;49.124;9.152;2023-04-06T00:47:44;4.22;;;3.58;;
12296;SDS011;6211;49.124;9.152;2023-04-06T00:50:12;5.95;;;3.80;;
12296;SDS011;6211;49.124;9.152;2023-04-06T00:52:40;2.42;;;2.30;;
12296;SDS011;6211;49.124;9.152;2023-04-06T00:55:07;3.40;;;3.10;;
12296;SDS011;6211;49.124;9.152;2023-04-06T00:57:34;3.47;;;3.05;;
12296;SDS011;6211;49.124;9.152;2023-04-06T01:00:01;3.50;;;2.55;;
12296;SDS011;6211;49.124;9.152;2023-04-06T01:02:29;4.95;;;3.83;;
12296;SDS011;6211;49.124;9.152;2023-04-06T01:04:56;3.35;;;2.83;;
12296;SDS011;6211;49.124;9.152;2023-04-06T01:07:24;3.03;;;2.72;;
12296;SDS011;6211;49.124;9.152;2023-04-06T01:09:52;7.45;;;2.85;;
12296;SDS011;6211;49.124;9.152;2023-04-06T01:12:19;5.35;;;3.22;;
12296;SDS011;6211;49.124;9.152;2023-04-06T01:14:47;2.63;;;2.42;;
12296;SDS011;6211;49.124;9.152;2023-04-06T01:17:14;3.55;;;3.03;;
12296;SDS011;6211;49.124;9.152;2023-04-06T01:19:41;2.65;;;2.53;;
12296;SDS011;6211;49.124;9.152;2023-04-06T01:22:14;2.83;;;2.63;;
12296;SDS011;6211;49.124;9.152;2023-04-06T01:24:41;4.18;;;2.70;;
12296;SDS011;6211;49.124;9.152;2023-04-06T01:27:09;4.25;;;3.35;;
12296;SDS011;6211;49.124;9.152;2023-04-06T01:29:36;3.17;;;2.58;;
12296;SDS011;6211;49.124;9.152;2023-04-06T01:32:06;3.15;;;2.75;;
12296;SDS011;6211;49.124;9.152;2023-04-06T01:34:33;2.30;;;2.17;;
12296;SDS011;6211;49.124;9.152;2023-04-06T01:37:00;3.55;;;3.22;;
12296;SDS011;6211;49.124;9.152;2023-04-06T01:39:29;2.50;;;2.30;;
12296;SDS011;6211;49.124;9.152;2023-04-06T01:41:57;2.92;;;2.67;;
12296;SDS011;6211;49.124;9.152;2023-04-06T01:44:24;5.03;;;3.88;;
12296;SDS011;6211;49.124;9.152;2023-04-06T01:46:51;4.03;;;3.60;;
12296;SDS011;6211;49.124;9.152;2023-04-06T01:49:18;3.10;;;2.83;;
12296;SDS011;6211;49.124;9.152;2023-04-06T01:51:45;4.88;;;3.90;;
12296;SDS011;6211;49.124;9.152;2023-04-06T01:54:12;2.55;;;2.35;;
12296;SDS011;6211;49.124;9.152;2023-04-06T01:56:41;4.88;;;2.47;;
12296;SDS011;6211;49.124;9.152;2023-04-06T01:59:08;3.67;;;3.38;;
12296;SDS011;6211;49.124;9.152;2023-04-06T02:01:35;4.55;;;3.25;;
12296;SDS011;6211;49.124;9.152;2023-04-06T02:04:02;3.10;;;2.60;;
12296;SDS011;6211;49.124;9.152;2023-04-06T02:06:30;2.20;;;2.00;;
12296;SDS011;6211;49.124;9.152;2023-04-06T02:08:57;3.95;;;3.45;;
12296;SDS011;6211;49.124;9.152;2023-04-06T02:11:24;3.60;;;3.30;;
12296;SDS011;6211;49.124;9.152;2023-04-06T02:13:52;2.72;;;2.53;;
12296;SDS011;6211;49.124;9.152;2023-04-06T02:16:19;2.75;;;2.55;;
12296;SDS011;6211;49.124;9.152;2023-04-06T02:18:47;2.63;;;2.42;;
12296;SDS011;6211;49.124;9.152;2023-04-06T02:21:14;3.22;;;2.65;;
12296;SDS011;6211;49.124;9.152;2023-04-06T02:23:44;3.65;;;3.33;;
12296;SDS011;6211;49.124;9.152;2023-04-06T02:26:12;9.95;;;2.97;;
12296;SDS011;6211;49.124;9.152;2023-04-06T02:28:39;7.00;;;2.97;;
12296;SDS011;6211;49.124;9.152;2023-04-06T02:31:08;2.95;;;2.70;;
12296;SDS011;6211;49.124;9.152;2023-04-06T02:33:36;4.25;;;3.85;;
12296;SDS011;6211;49.124;9.152;2023-04-06T02:36:03;7.18;;;3.35;;
12296;SDS011;6211;49.124;9.152;2023-04-06T02:38:30;5.07;;;4.13;;
12296;SDS011;6211;49.124;9.152;2023-04-06T02:40:57;5.15;;;4.18;;
12296;SDS011;6211;49.124;9.152;2023-04-06T02:43:24;8.25;;;4.05;;
12296;SDS011;6211;49.124;9.152;2023-04-06T02:45:51;2.38;;;2.17;;
12296;SDS011;6211;49.124;9.152;2023-04-06T02:48:20;3.05;;;2.85;;
12296;SDS011;6211;49.124;9.152;2023-04-06T02:50:47;2.92;;;2.63;;
12296;SDS011;6211;49.124;9.152;2023-04-06T02:53:14;3.97;;;3.58;;
12296;SDS011;6211;49.124;9.152;2023-04-06T02:55:41;3.78;;;3.45;;
12296;SDS011;6211;49.124;9.152;2023-04-06T02:58:08;3.05;;;2.85;;
12296;SDS011;6211;49.124;9.152;2023-04-06T03:00:35;2.53;;;2.20;;
12296;SDS011;6211;49.124;9.152;2023-04-06T03:03:02;5.15;;;3.63;;
12296;SDS011;6211;49.124;9.152;2023-04-06T03:05:31;3.92;;;2.28;;
12296;SDS011;6211;49.124;9.152;2023-04-06T03:07:58;3.72;;;3.42;;
12296;SDS011;6211;49.124;9.152;2023-04-06T03:10:25;3.47;;;2.45;;
12296;SDS011;6211;49.124;9.152;2023-04-06T03:12:52;3.85;;;3.45;;
12296;SDS011;6211;49.124;9.152;2023-04-06T03:15:20;2.88;;;2.65;;
12296;SDS011;6211;49.124;9.152;2023-04-06T03:17:47;4.03;;;3.13;;
12296;SDS011;6211;49.124;9.152;2023-04-06T03:20:14;2.70;;;2.13;;
12296;SDS011;6211;49.124;9.152;2023-04-06T03:22:42;9.88;;;3.35;;
12296;SDS011;6211;49.124;9.152;2023-04-06T03:25:09;2.83;;;2.63;;
12296;SDS011;6211;49.124;9.152;2023-04-06T03:27:36;2.22;;;2.13;;
12296;SDS011;6211;49.124;9.152;2023-04-06T03:30:04;6.50;;;2.05;;
12296;SDS011;6211;49.124;9.152;2023-04-06T03:32:31;4.03;;;2.47;;
12296;SDS011;6211;49.124;9.152;2023-04-06T03:34:58;2.90;;;2.60;;
12296;SDS011;6211;49.124;9.152;2023-04-06T03:37:25;5.05;;;3.20;;
12296;SDS011;6211;49.124;9.152;2023-04-06T03:39:54;6.60;;;3.65;;
12296;SDS011;6211;49.124;9.152;2023-04-06T03:42:21;5.63;;;2.92;;
12296;SDS011;6211;49.124;9.152;2023-04-06T03:44:48;3.00;;;2.80;;
12296;SDS011;6211;49.124;9.152;2023-04-06T03:47:15;6.45;;;3.45;;
12296;SDS011;6211;49.124;9.152;2023-04-06T03:49:42;2.58;;;2.47;;
12296;SDS011;6211;49.124;9.152;2023-04-06T03:52:09;5.53;;;3.05;;
12296;SDS011;6211;49.124;9.152;2023-04-06T03:54:36;5.20;;;3.60;;
12296;SDS011;6211;49.124;9.152;2023-04-06T03:57:05;3.00;;;2.70;;
12296;SDS011;6211;49.124;9.152;2023-04-06T03:59:32;6.03;;;4.72;;
12296;SDS011;6211;49.124;9.152;2023-04-06T04:01:59;3.67;;;2.70;;
12296;SDS011;6211;49.124;9.152;2023-04-06T04:04:26;3.55;;;3.25;;
12296;SDS011;6211;49.124;9.152;2023-04-06T04:06:53;4.25;;;2.42;;
12296;SDS011;6211;49.124;9.152;2023-04-06T04:09:20;4.07;;;3.15;;
12296;SDS011;6211;49.124;9.152;2023-04-06T04:11:47;5.00;;;3.35;;
12296;SDS011;6211;49.124;9.152;2023-04-06T04:14:16;3.58;;;3.38;;
12296;SDS011;6211;49.124;9.152;2023-04-06T04:16:43;3.60;;;3.30;;
12296;SDS011;6211;49.124;9.152;2023-04-06T04:19:10;4.95;;;4.13;;
12296;SDS011;6211;49.124;9.152;2023-04-06T04:21:41;6.60;;;3.20;;
12296;SDS011;6211;49.124;9.152;2023-04-06T04:24:09;2.58;;;2.28;;
12296;SDS011;6211;49.124;9.152;2023-04-06T04:26:37;2.88;;;2.67;;
12296;SDS011;6211;49.124;9.152;2023-04-06T04:29:04;3.75;;;3.20;;
12296;SDS011;6211;49.124;9.152;2023-04-06T04:31:32;1.90;;;1.77;;
12296;SDS011;6211;49.124;9.152;2023-04-06T04:33:59;3.65;;;3.35;;
12296;SDS011;6211;49.124;9.152;2023-04-06T04:36:26;2.95;;;2.38;;
12296;SDS011;6211;49.124;9.152;2023-04-06T04:38:54;4.45;;;3.60;;
12296;SDS011;6211;49.124;9.152;2023-04-06T04:41:21;3.10;;;2.80;;
12296;SDS011;6211;49.124;9.152;2023-04-06T04:43:48;2.25;;;2.05;;
12296;SDS011;6211;49.124;9.152;2023-04-06T04:46:15;4.28;;;3.13;;
12296;SDS011;6211;49.124;9.152;2023-04-06T04:48:43;2.17;;;1.98;;
12296;SDS011;6211;49.124;9.152;2023-04-06T04:51:10;10.32;;;3.30;;
12296;SDS011;6211;49.124;9.152;2023-04-06T04:53:37;3.80;;;3.47;;
12296;SDS011;6211;49.124;9.152;2023-04-06T04:56:05;5.43;;;3.35;;
12296;SDS011;6211;49.124;9.152;2023-04-06T04:58:32;4.82;;;3.28;;
12296;SDS011;6211;49.124;9.152;2023-04-06T05:00:59;3.28;;;3.00;;
12296;SDS011;6211;49.124;9.152;2023-04-06T05:03:26;4.15;;;2.75;;
12296;SDS011;6211;49.124;9.152;2023-04-06T05:05:55;3.35;;;2.58;;
12296;SDS011;6211;49.124;9.152;2023-04-06T05:08:22;3.63;;;3.38;;
12296;SDS011;6211;49.124;9.152;2023-04-06T05:10:49;4.45;;;3.38;;
12296;SDS011;6211;49.124;9.152;2023-04-06T05:13:16;6.65;;;3.08;;
12296;SDS011;6211;49.124;9.152;2023-04-06T05:15:43;4.75;;;2.92;;
12296;SDS011;6211;49.124;9.152;2023-04-06T05:18:10;3.17;;;2.88;;
12296;SDS011;6211;49.124;9.152;2023-04-06T05:20:38;3.72;;;2.65;;
12296;SDS011;6211;49.124;9.152;2023-04-06T05:23:06;3.80;;;3.55;;
12296;SDS011;6211;49.124;9.152;2023-04-06T05:25:34;4.00;;;2.92;;
12296;SDS011;6211;49.124;9.152;2023-04-06T05:28:01;5.90;;;4.47;;
12296;SDS011;6211;49.124;9.152;2023-04-06T05:30:28;4.03;;;2.78;;
12296;SDS011;6211;49.124;9.152;2023-04-06T05:32:55;4.70;;;3.08;;
12296;SDS011;6211;49.124;9.152;2023-04-06T05:35:22;4.95;;;3.20;;
12296;SDS011;6211;49.124;9.152;2023-04-06T05:37:49;9.88;;;3.25;;
12296;SDS011;6211;49.124;9.152;2023-04-06T05:40:18;5.45;;;3.08;;
12296;SDS011;6211;49.124;9.152;2023-04-06T05:42:45;5.00;;;4.30;;
12296;SDS011;6211;49.124;9.152;2023-04-06T05:45:12;6.20;;;3.88;;
12296;SDS011;6211;49.124;9.152;2023-04-06T05:47:41;4.78;;;4.00;;
12296;SDS011;6211;49.124;9.152;2023-04-06T05:50:09;4.55;;;3.30;;
12296;SDS011;6211;49.124;9.152;2023-04-06T05:52:36;6.43;;;4.15;;
12296;SDS011;6211;49.124;9.152;2023-04-06T05:55:03;6.13;;;5.18;;
12296;SDS011;6211;49.124;9.152;2023-04-06T05:57:32;5.43;;;4.72;;
12296;SDS011;6211;49.124;9.152;2023-04-06T05:59:59;6.32;;;3.72;;
12296;SDS011;6211;49.124;9.152;2023-04-06T06:02:30;6.80;;;4.30;;
12296;SDS011;6211;49.124;9.152;2023-04-06T06:04:57;5.00;;;4.50;;
12296;SDS011;6211;49.124;9.152;2023-04-06T06:07:24;5.68;;;4.30;;
12296;SDS011;6211;49.124;9.152;2023-04-06T06:09:51;6.38;;;4.32;;
12296;SDS011;6211;49.124;9.152;2023-04-06T06:12:18;4.35;;;3.90;;
12296;SDS011;6211;49.124;9.152;2023-04-06T06:14:47;4.25;;;3.33;;
12296;SDS011;6211;49.124;9.152;2023-04-06T06:17:14;5.90;;;4.18;;
12296;SDS011;6211;49.124;9.152;2023-04-06T06:19:41;6.38;;;5.30;;
12296;SDS011;6211;49.124;9.152;2023-04-06T06:22:08;5.63;;;4.38;;
12296;SDS011;6211;49.124;9.152;2023-04-06T06:24:35;6.65;;;4.25;;
12296;SDS011;6211;49.124;9.152;2023-04-06T06:27:02;11.30;;;5.45;;
12296;SDS011;6211;49.124;9.152;2023-04-06T06:29:29;9.02;;;5.57;;
12296;SDS011;6211;49.124;9.152;2023-04-06T06:31:58;8.13;;;5.88;;
12296;SDS011;6211;49.124;9.152;2023-04-06T06:34:25;6.40;;;5.10;;
12296;SDS011;6211;49.124;9.152;2023-04-06T06:36:52;6.93;;;5.80;;
12296;SDS011;6211;49.124;9.152;2023-04-06T06:39:20;9.70;;;6.55;;
12296;SDS011;6211;49.124;9.152;2023-04-06T06:41:47;7.45;;;4.57;;
12296;SDS011;6211;49.124;9.152;2023-04-06T06:44:14;6.80;;;4.32;;
12296;SDS011;6211;49.124;9.152;2023-04-06T06:46:42;9.25;;;5.55;;
12296;SDS011;6211;49.124;9.152;2023-04-06T06:49:11;7.70;;;4.63;;
12296;SDS011;6211;49.124;9.152;2023-04-06T06:51:39;7.15;;;4.85;;
12296;SDS011;6211;49.124;9.152;2023-04-06T06:54:06;7.63;;;5.00;;
12296;SDS011;6211;49.124;9.152;2023-04-06T06:56:33;5.78;;;5.15;;
12296;SDS011;6211;49.124;9.152;2023-04-06T06:59:02;7.25;;;4.75;;
12296;SDS011;6211;49.124;9.152;2023-04-06T07:01:30;7.72;;;5.65;;
12296;SDS011;6211;49.124;9.152;2023-04-06T07:03:57;5.85;;;4.80;;
12296;SDS011;6211;49.124;9.152;2023-04-06T07:06:26;5.28;;;4.38;;
12296;SDS011;6211;49.124;9.152;2023-04-06T07:08:53;7.40;;;4.72;;
12296;SDS011;6211;49.124;9.152;2023-04-06T07:11:20;6.45;;;4.90;;
12296;SDS011;6211;49.124;9.152;2023-04-06T07:13:47;7.43;;;5.80;;
12296;SDS011;6211;49.124;9.152;2023-04-06T07:16:14;6.93;;;5.30;;
12296;SDS011;6211;49.124;9.152;2023-04-06T07:18:42;4.78;;;4.35;;
12296;SDS011;6211;49.124;9.152;2023-04-06T07:21:09;7.78;;;5.47;;
12296;SDS011;6211;49.124;9.152;2023-04-06T07:23:37;8.32;;;5.20;;
12296;SDS011;6211;49.124;9.152;2023-04-06T07:26:05;6.60;;;5.00;;
12296;SDS011;6211;49.124;9.152;2023-04-06T07:28:32;5.18;;;4.47;;
12296;SDS011;6211;49.124;9.152;2023-04-06T07:30:59;6.20;;;4.63;;
12296;SDS011;6211;49.124;9.152;2023-04-06T07:33:26;5.90;;;4.43;;
12296;SDS011;6211;49.124;9.152;2023-04-06T07:35:54;7.65;;;5.20;;
12296;SDS011;6211;49.124;9.152;2023-04-06T07:38:23;8.27;;;4.78;;
12296;SDS011;6211;49.124;9.152;2023-04-06T07:40:51;6.72;;;4.32;;
12296;SDS011;6211;49.124;9.152;2023-04-06T07:43:19;7.45;;;5.10;;
12296;SDS011;6211;49.124;9.152;2023-04-06T07:45:46;8.40;;;5.10;;
12296;SDS011;6211;49.124;9.152;2023-04-06T07:48:13;6.90;;;5.00;;
12296;SDS011;6211;49.124;9.152;2023-04-06T07:50:40;6.35;;;4.47;;
12296;SDS011;6211;49.124;9.152;2023-04-06T07:53:08;5.57;;;4.90;;
12296;SDS011;6211;49.124;9.152;2023-04-06T07:55:35;7.28;;;4.88;;
12296;SDS011;6211;49.124;9.152;2023-04-06T07:58:04;5.65;;;4.22;;
12296;SDS011;6211;49.124;9.152;2023-04-06T08:00:31;11.00;;;5.22;;
12296;SDS011;6211;49.124;9.152;2023-04-06T08:02:58;7.75;;;4.88;;
12296;SDS011;6211;49.124;9.152;2023-04-06T08:05:26;6.72;;;5.18;;
12296;SDS011;6211;49.124;9.152;2023-04-06T08:07:54;6.70;;;4.03;;
12296;SDS011;6211;49.124;9.152;2023-04-06T08:10:21;8.82;;;4.30;;
12296;SDS011;6211;49.124;9.152;2023-04-06T08:12:48;5.47;;;4.50;;
12296;SDS011;6211;49.124;9.152;2023-04-06T08:15:17;6.75;;;4.95;;
12296;SDS011;6211;49.124;9.152;2023-04-06T08:17:44;5.10;;;3.75;;
12296;SDS011;6211;49.124;9.152;2023-04-06T08:20:11;7.03;;;5.18;;
12296;SDS011;6211;49.124;9.152;2023-04-06T08:22:38;5.93;;;4.47;;
12296;SDS011;6211;49.124;9.152;2023-04-06T08:25:05;7.80;;;4.35;;
12296;SDS011;6211;49.124;9.152;2023-04-06T08:27:32;8.57;;;4.35;;
12296;SDS011;6211;49.124;9.152;2023-04-06T08:30:00;6.55;;;4.57;;
12296;SDS011;6211;49.124;9.152;2023-04-06T08:32:28;7.68;;;5.13;;
12296;SDS011;6211;49.124;9.152;2023-04-06T08:34:55;8.73;;;5.05;;
12296;SDS011;6211;49.124;9.152;2023-04-06T08:37:22;5.97;;;4.28;;
12296;SDS011;6211;49.124;9.152;2023-04-06T08:39:50;7.60;;;3.95;;
12296;SDS011;6211;49.124;9.152;2023-04-06T08:42:19;6.28;;;3.95;;
12296;SDS011;6211;49.124;9.152;2023-04-06T08:44:46;6.32;;;4.85;;
12296;SDS011;6211;49.124;9.152;2023-04-06T08:47:14;7.22;;;3.92;;
12296;SDS011;6211;49.124;9.152;2023-04-06T08:49:42;5.18;;;3.90;;
12296;SDS011;6211;49.124;9.152;2023-04-06T08:52:11;8.57;;;4.25;;
12296;SDS011;6211;49.124;9.152;2023-04-06T08:54:38;7.43;;;4.47;;
12296;SDS011;6211;49.124;9.152;2023-04-06T08:57:05;8.70;;;4.85;;
12296;SDS011;6211;49.124;9.152;2023-04-06T08:59:33;5.05;;;3.95;;
12296;SDS011;6211;49.124;9.152;2023-04-06T09:02:01;5.28;;;3.92;;
12296;SDS011;6211;49.124;9.152;2023-04-06T09:04:30;4.93;;;3.92;;
12296;SDS011;6211;49.124;9.152;2023-04-06T09:06:59;4.63;;;3.78;;
12296;SDS011;6211;49.124;9.152;2023-04-06T09:09:26;7.00;;;4.20;;
12296;SDS011;6211;49.124;9.152;2023-04-06T09:11:53;4.53;;;3.72;;
12296;SDS011;6211;49.124;9.152;2023-04-06T09:14:34;4.20;;;3.63;;
12296;SDS011;6211;49.124;9.152;2023-04-06T09:17:02;5.32;;;3.92;;
12296;SDS011;6211;49.124;9.152;2023-04-06T09:19:29;6.20;;;4.38;;
12296;SDS011;6211;49.124;9.152;2023-04-06T09:22:04;6.07;;;3.85;;
12296;SDS011;6211;49.124;9.152;2023-04-06T09:24:41;6.57;;;4.75;;
12296;SDS011;6211;49.124;9.152;2023-04-06T09:27:09;5.25;;;4.20;;
12296;SDS011;6211;49.124;9.152;2023-04-06T09:29:36;6.30;;;4.03;;
12296;SDS011;6211;49.124;9.152;2023-04-06T09:32:03;5.82;;;3.45;;
12296;SDS011;6211;49.124;9.152;2023-04-06T09:34:30;5.57;;;3.63;;
12296;SDS011;6211;49.124;9.152;2023-04-06T09:36:57;5.75;;;4.10;;
12296;SDS011;6211;49.124;9.152;2023-04-06T09:39:26;5.65;;;4.03;;
12296;SDS011;6211;49.124;9.152;2023-04-06T09:41:53;6.22;;;4.53;;
12296;SDS011;6211;49.124;9.152;2023-04-06T09:44:20;4.88;;;3.22;;
12296;SDS011;6211;49.124;9.152;2023-04-06T09:46:49;4.65;;;3.20;;
12296;SDS011;6211;49.124;9.152;2023-04-06T09:49:16;4.90;;;3.40;;
12296;SDS011;6211;49.124;9.152;2023-04-06T09:51:44;5.40;;;3.42;;
12296;SDS011;6211;49.124;9.152;2023-04-06T09:54:14;4.63;;;3.53;;
12296;SDS011;6211;49.124;9.152;2023-04-06T09:56:45;3.80;;;3.25;;
12296;SDS011;6211;49.124;9.152;2023-04-06T09:59:13;7.35;;;4.32;;
12296;SDS011;6211;49.124;9.152;2023-04-06T10:01:41;5.20;;;3.97;;
12296;SDS011;6211;49.124;9.152;2023-04-06T10:04:12;3.78;;;3.17;;
12296;SDS011;6211;49.124;9.152;2023-04-06T10:06:40;4.35;;;3.22;;
12296;SDS011;6211;49.124;9.152;2023-04-06T10:09:07;3.17;;;2.58;;
12296;SDS011;6211;49.124;9.152;2023-04-06T10:11:36;4.63;;;3.50;;
12296;SDS011;6211;49.124;9.152;2023-04-06T10:14:04;5.10;;;3.42;;
12296;SDS011;6211;49.124;9.152;2023-04-06T10:16:32;5.03;;;3.38;;
12296;SDS011;6211;49.124;9.152;2023-04-06T10:19:01;4.45;;;3.47;;
12296;SDS011;6211;49.124;9.152;2023-04-06T10:21:28;3.55;;;2.80;;
12296;SDS011;6211;49.124;9.152;2023-04-06T10:23:58;4.70;;;3.38;;
12296;SDS011;6211;49.124;9.152;2023-04-06T10:26:26;7.65;;;3.38;;
12296;SDS011;6211;49.124;9.152;2023-04-06T10:28:53;6.18;;;3.83;;
12296;SDS011;6211;49.124;9.152;2023-04-06T10:31:25;5.65;;;3.47;;
12296;SDS011;6211;49.124;9.152;2023-04-06T10:33:55;5.25;;;3.30;;
12296;SDS011;6211;49.124;9.152;2023-04-06T10:36:23;3.90;;;3.22;;
12296;SDS011;6211;49.124;9.152;2023-04-06T10:38:56;4.65;;;3.55;;
12296;SDS011;6211;49.124;9.152;2023-04-06T10:41:23;5.28;;;3.25;;
12296;SDS011;6211;49.124;9.152;2023-04-06T10:43:55;3.90;;;3.17;;
12296;SDS011;6211;49.124;9.152;2023-04-06T10:46:26;3.38;;;2.90;;
12296;SDS011;6211;49.124;9.152;2023-04-06T10:48:56;4.82;;;2.85;;
12296;SDS011;6211;49.124;9.152;2023-04-06T10:51:26;4.75;;;3.47;;
12296;SDS011;6211;49.124;9.152;2023-04-06T10:53:54;4.38;;;3.30;;
12296;SDS011;6211;49.124;9.152;2023-04-06T10:56:22;4.78;;;2.78;;
12296;SDS011;6211;49.124;9.152;2023-04-06T10:58:52;5.43;;;3.55;;
12296;SDS011;6211;49.124;9.152;2023-04-06T11:01:21;5.63;;;3.47;;
12296;SDS011;6211;49.124;9.152;2023-04-06T11:03:50;6.35;;;3.45;;
12296;SDS011;6211;49.124;9.152;2023-04-06T11:06:18;5.90;;;3.92;;
12296;SDS011;6211;49.124;9.152;2023-04-06T11:08:45;4.10;;;3.15;;
12296;SDS011;6211;49.124;9.152;2023-04-06T11:11:13;5.53;;;3.45;;
12296;SDS011;6211;49.124;9.152;2023-04-06T11:13:43;3.38;;;3.00;;
12296;SDS011;6211;49.124;9.152;2023-04-06T11:16:15;3.75;;;3.17;;
12296;SDS011;6211;49.124;9.152;2023-04-06T11:18:50;5.50;;;3.60;;
12296;SDS011;6211;49.124;9.152;2023-04-06T11:21:18;4.50;;;3.28;;
12296;SDS011;6211;49.124;9.152;2023-04-06T11:23:47;7.10;;;3.55;;
12296;SDS011;6211;49.124;9.152;2023-04-06T11:26:14;6.20;;;3.75;;
12296;SDS011;6211;49.124;9.152;2023-04-06T11:28:43;6.00;;;4.03;;
12296;SDS011;6211;49.124;9.152;2023-04-06T11:31:10;4.70;;;3.25;;
12296;SDS011;6211;49.124;9.152;2023-04-06T11:33:38;4.47;;;3.38;;
12296;SDS011;6211;49.124;9.152;2023-04-06T11:36:10;6.07;;;3.50;;
12296;SDS011;6211;49.124;9.152;2023-04-06T11:38:38;5.18;;;3.40;;
12296;SDS011;6211;49.124;9.152;2023-04-06T11:41:06;6.05;;;3.92;;
12296;SDS011;6211;49.124;9.152;2023-04-06T11:43:33;4.18;;;3.30;;
12296;SDS011;6211;49.124;9.152;2023-04-06T11:46:01;5.60;;;3.70;;
12296;SDS011;6211;49.124;9.152;2023-04-06T11:48:28;5.38;;;3.88;;
12296;SDS011;6211;49.124;9.152;2023-04-06T11:50:56;5.63;;;3.90;;
12296;SDS011;6211;49.124;9.152;2023-04-06T11:53:27;6.65;;;4.13;;
12296;SDS011;6211;49.124;9.152;2023-04-06T11:55:54;4.57;;;3.30;;
12296;SDS011;6211;49.124;9.152;2023-04-06T11:58:22;6.93;;;4.03;;
12296;SDS011;6211;49.124;9.152;2023-04-06T12:00:49;5.28;;;4.28;;
12296;SDS011;6211;49.124;9.152;2023-04-06T12:03:17;5.70;;;3.67;;
12296;SDS011;6211;49.124;9.152;2023-04-06T12:05:45;6.43;;;4.00;;
12296;SDS011;6211;49.124;9.152;2023-04-06T12:08:12;5.32;;;3.83;;
12296;SDS011;6211;49.124;9.152;2023-04-06T12:10:41;4.28;;;3.45;;
12296;SDS011;6211;49.124;9.152;2023-04-06T12:13:08;5.90;;;3.72;;
12296;SDS011;6211;49.124;9.152;2023-04-06T12:15:35;5.65;;;3.85;;
12296;SDS011;6211;49.124;9.152;2023-04-06T12:18:02;4.32;;;3.42;;
12296;SDS011;6211;49.124;9.152;2023-04-06T12:20:30;5.82;;;4.07;;
12296;SDS011;6211;49.124;9.152;2023-04-06T12:22:58;4.93;;;4.10;;
12296;SDS011;6211;49.124;9.152;2023-04-06T12:25:25;5.50;;;3.65;;
12296;SDS011;6211;49.124;9.152;2023-04-06T12:27:54;6.30;;;4.03;;
12296;SDS011;6211;49.124;9.152;2023-04-06T12:30:21;5.40;;;4.20;;
12296;SDS011;6211;49.124;9.152;2023-04-06T12:32:49;6.25;;;4.25;;
12296;SDS011;6211;49.124;9.152;2023-04-06T12:35:17;6.00;;;4.32;;
12296;SDS011;6211;49.124;9.152;2023-04-06T12:37:44;4.90;;;3.88;;
12296;SDS011;6211;49.124;9.152;2023-04-06T12:40:11;5.55;;;4.35;;
12296;SDS011;6211;49.124;9.152;2023-04-06T12:42:39;5.75;;;4.30;;
12296;SDS011;6211;49.124;9.152;2023-04-06T12:45:09;5.53;;;4.30;;
12296;SDS011;6211;49.124;9.152;2023-04-06T12:47:36;4.70;;;4.10;;
12296;SDS011;6211;49.124;9.152;2023-04-06T12:50:04;5.65;;;4.55;;
12296;SDS011;6211;49.124;9.152;2023-04-06T12:52:31;6.65;;;4.38;;
12296;SDS011;6211;49.124;9.152;2023-04-06T12:55:00;5.57;;;4.50;;
12296;SDS011;6211;49.124;9.152;2023-04-06T12:57:27;6.43;;;4.75;;
12296;SDS011;6211;49.124;9.152;2023-04-06T12:59:55;5.25;;;4.28;;
12296;SDS011;6211;49.124;9.152;2023-04-06T13:02:24;5.78;;;4.32;;
12296;SDS011;6211;49.124;9.152;2023-04-06T13:04:52;5.75;;;3.78;;
12296;SDS011;6211;49.124;9.152;2023-04-06T13:07:19;4.72;;;3.80;;
12296;SDS011;6211;49.124;9.152;2023-04-06T13:09:46;5.35;;;3.80;;
12296;SDS011;6211;49.124;9.152;2023-04-06T13:12:14;5.45;;;4.25;;
12296;SDS011;6211;49.124;9.152;2023-04-06T13:14:41;6.03;;;4.15;;
12296;SDS011;6211;49.124;9.152;2023-04-06T13:17:12;5.85;;;3.90;;
12296;SDS011;6211;49.124;9.152;2023-04-06T13:19:41;7.07;;;4.38;;
12296;SDS011;6211;49.124;9.152;2023-04-06T13:22:08;5.07;;;4.35;;
12296;SDS011;6211;49.124;9.152;2023-04-06T13:24:35;6.30;;;4.40;;
12296;SDS011;6211;49.124;9.152;2023-04-06T13:27:02;5.00;;;4.53;;
12296;SDS011;6211;49.124;9.152;2023-04-06T13:29:30;7.75;;;4.90;;
12296;SDS011;6211;49.124;9.152;2023-04-06T13:31:57;5.85;;;3.83;;
12296;SDS011;6211;49.124;9.152;2023-04-06T13:34:24;6.47;;;4.82;;
12296;SDS011;6211;49.124;9.152;2023-04-06T13:36:53;7.95;;;4.97;;
12296;SDS011;6211;49.124;9.152;2023-04-06T13:39:21;6.60;;;4.22;;
12296;SDS011;6211;49.124;9.152;2023-04-06T13:41:48;6.85;;;4.68;;
12296;SDS011;6211;49.124;9.152;2023-04-06T13:44:15;5.53;;;4.18;;
12296;SDS011;6211;49.124;9.152;2023-04-06T13:46:42;5.93;;;4.57;;
12296;SDS011;6211;49.124;9.152;2023-04-06T13:49:09;8.68;;;4.70;;
12296;SDS011;6211;49.124;9.152;2023-04-06T13:51:36;7.28;;;4.80;;
12296;SDS011;6211;49.124;9.152;2023-04-06T13:54:05;7.10;;;4.53;;
12296;SDS011;6211;49.124;9.152;2023-04-06T13:56:32;9.60;;;4.78;;
12296;SDS011;6211;49.124;9.152;2023-04-06T13:58:59;6.28;;;4.50;;
12296;SDS011;6211;49.124;9.152;2023-04-06T14:01:27;6.13;;;4.10;;
12296;SDS011;6211;49.124;9.152;2023-04-06T14:03:56;5.30;;;4.00;;
12296;SDS011;6211;49.124;9.152;2023-04-06T14:06:23;5.03;;;3.95;;
12296;SDS011;6211;49.124;9.152;2023-04-06T14:08:50;7.20;;;4.55;;
12296;SDS011;6211;49.124;9.152;2023-04-06T14:11:19;5.65;;;4.68;;
12296;SDS011;6211;49.124;9.152;2023-04-06T14:13:46;8.30;;;4.85;;
12296;SDS011;6211;49.124;9.152;2023-04-06T14:16:13;7.15;;;5.20;;
12296;SDS011;6211;49.124;9.152;2023-04-06T14:18:44;6.78;;;4.32;;
12296;SDS011;6211;49.124;9.152;2023-04-06T14:21:11;6.88;;;4.43;;
12296;SDS011;6211;49.124;9.152;2023-04-06T14:23:39;6.70;;;4.65;;
12296;SDS011;6211;49.124;9.152;2023-04-06T14:26:07;5.63;;;4.00;;
12296;SDS011;6211;49.124;9.152;2023-04-06T14:28:36;6.45;;;4.47;;
12296;SDS011;6211;49.124;9.152;2023-04-06T14:31:09;6.63;;;4.50;;
12296;SDS011;6211;49.124;9.152;2023-04-06T14:33:38;5.95;;;4.35;;
12296;SDS011;6211;49.124;9.152;2023-04-06T14:36:05;6.07;;;4.68;;
12296;SDS011;6211;49.124;9.152;2023-04-06T14:38:33;8.40;;;4.72;;
12296;SDS011;6211;49.124;9.152;2023-04-06T14:41:00;5.68;;;4.55;;
12296;SDS011;6211;49.124;9.152;2023-04-06T14:43:27;7.85;;;5.10;;
12296;SDS011;6211;49.124;9.152;2023-04-06T14:45:59;5.50;;;4.70;;
12296;SDS011;6211;49.124;9.152;2023-04-06T14:48:26;4.80;;;4.38;;
12296;SDS011;6211;49.124;9.152;2023-04-06T14:50:53;4.95;;;4.40;;
12296;SDS011;6211;49.124;9.152;2023-04-06T14:53:21;6.30;;;4.68;;
12296;SDS011;6211;49.124;9.152;2023-04-06T14:55:48;4.85;;;4.18;;
12296;SDS011;6211;49.124;9.152;2023-04-06T14:58:16;5.63;;;4.22;;
12296;SDS011;6211;49.124;9.152;2023-04-06T15:00:43;6.50;;;4.38;;
12296;SDS011;6211;49.124;9.152;2023-04-06T15:03:12;7.00;;;5.32;;